createdAt,value
2023-03-05T00:00:24.424Z,100342.59
2023-03-05T00:02:52.180Z,100337.31
2023-03-05T00:05:20.073Z,100338.16
2023-03-05T00:07:49.151Z,100332.97
2023-03-05T00:10:17.177Z,100336.47
2023-03-05T00:12:44.837Z,100326.84
2023-03-05T00:15:12.594Z,100325.97
2023-03-05T00:17:40.558Z,100323.34
2023-03-05T00:20:08.261Z,100324.28
2023-03-05T00:22:36.517Z,100317.38
2023-03-05T00:25:04.255Z,100313.88
2023-03-05T00:27:32.219Z,100311.22
2023-03-05T00:30:00.131Z,100304.25
2023-03-05T00:32:27.948Z,100307.75
2023-03-05T00:34:55.979Z,100303.41
2023-03-05T00:37:23.684Z,100305.13
2023-03-05T00:39:51.334Z,100301.63
2023-03-05T00:42:19.191Z,100301.63
2023-03-05T00:44:47.325Z,100294.63
2023-03-05T00:47:17.354Z,100293.81
2023-03-05T00:49:45.027Z,100297.28
2023-03-05T00:52:12.708Z,100298.22
2023-03-05T00:54:40.441Z,100292.94
2023-03-05T00:57:08.090Z,100288.53
2023-03-05T00:59:36.012Z,100292.09
2023-03-05T01:02:03.776Z,100292.94
2023-03-05T01:04:31.436Z,100284.25
2023-03-05T01:07:00.381Z,100278.97
2023-03-05T01:09:28.057Z,100273.72
2023-03-05T01:11:56.018Z,100268.56
2023-03-05T01:14:23.695Z,100270.31
2023-03-05T01:16:51.338Z,100263.28
2023-03-05T01:19:19.041Z,100269.50
2023-03-05T01:21:46.761Z,100267.81
2023-03-05T01:24:14.419Z,100264.22
2023-03-05T01:26:42.046Z,100262.53
2023-03-05T01:29:09.730Z,100254.63
2023-03-05T01:31:37.612Z,100254.63
2023-03-05T01:34:05.260Z,100245.00
2023-03-05T01:36:33.294Z,100245.94
2023-03-05T01:39:01.416Z,100241.59
2023-03-05T01:41:29.036Z,100251.34
2023-03-05T01:43:56.898Z,100242.84
2023-03-05T01:46:24.515Z,100238.63
2023-03-05T01:48:52.869Z,100237.09
2023-03-05T01:51:20.534Z,100241.66
2023-03-05T01:53:48.142Z,100233.06
2023-03-05T01:56:15.905Z,100240.19
2023-03-05T01:58:43.571Z,100241.09
2023-03-05T02:01:11.334Z,100241.19
2023-03-05T02:03:38.967Z,100239.50
2023-03-05T02:06:06.678Z,100229.94
2023-03-05T02:08:34.464Z,100235.22
2023-03-05T02:11:02.543Z,100226.38
2023-03-05T02:13:30.561Z,100225.63
2023-03-05T02:15:58.234Z,100223.81
2023-03-05T02:18:25.831Z,100217.53
2023-03-05T02:20:54.093Z,100217.59
2023-03-05T02:23:22.419Z,100210.72
2023-03-05T02:25:50.386Z,100209.88
2023-03-05T02:28:18.046Z,100207.41
2023-03-05T02:30:45.657Z,100203.97
2023-03-05T02:33:14.887Z,100198.84
2023-03-05T02:35:43.816Z,100188.38
2023-03-05T02:38:11.855Z,100184.13
2023-03-05T02:40:39.444Z,100182.50
2023-03-05T02:43:07.098Z,100184.28
2023-03-05T02:45:34.733Z,100178.25
2023-03-05T02:48:02.428Z,100180.94
2023-03-05T02:50:30.436Z,100178.38
2023-03-05T02:52:58.060Z,100182.81
2023-03-05T02:55:26.109Z,100180.25
2023-03-05T02:57:53.932Z,100168.94
2023-03-05T03:00:21.556Z,100172.41
2023-03-05T03:02:49.589Z,100168.06
2023-03-05T03:05:17.311Z,100162.78
2023-03-05T03:07:44.964Z,100162.88
2023-03-05T03:10:12.724Z,100162.97
2023-03-05T03:12:40.378Z,100152.44
2023-03-05T03:15:07.991Z,100156.81
2023-03-05T03:17:36.065Z,100148.09
2023-03-05T03:20:03.977Z,100152.44
2023-03-05T03:22:31.784Z,100158.63
2023-03-05T03:24:59.380Z,100143.75
2023-03-05T03:27:27.045Z,100141.13
2023-03-05T03:29:54.630Z,100144.59
2023-03-05T03:32:22.256Z,100134.06
2023-03-05T03:34:50.263Z,100128.78
2023-03-05T03:37:17.871Z,100122.69
2023-03-05T03:39:46.353Z,100121.81
2023-03-05T03:42:14.025Z,100121.75
2023-03-05T03:44:41.611Z,100126.16
2023-03-05T03:47:09.213Z,100116.53
2023-03-05T03:49:36.840Z,100119.13
2023-03-05T03:52:04.793Z,100117.41
2023-03-05T03:54:32.364Z,100106.00
2023-03-05T03:56:59.984Z,100109.59
2023-03-05T03:59:27.754Z,100100.81
2023-03-05T04:01:55.359Z,100096.41
2023-03-05T04:04:23.394Z,100093.84
2023-03-05T04:06:51.027Z,100098.19
2023-03-05T04:09:18.601Z,100097.34
2023-03-05T04:11:46.430Z,100092.16
2023-03-05T04:14:14.007Z,100093.84
2023-03-05T04:16:41.967Z,100089.50
2023-03-05T04:19:09.613Z,100089.50
2023-03-05T04:21:37.206Z,100086.00
2023-03-05T04:24:05.920Z,100084.31
2023-03-05T04:26:33.560Z,100081.69
2023-03-05T04:29:01.519Z,100082.53
2023-03-05T04:31:29.142Z,100078.97
2023-03-05T04:33:56.758Z,100075.47
2023-03-05T04:36:24.338Z,100073.72
2023-03-05T04:38:51.896Z,100076.28
2023-03-05T04:41:19.932Z,100070.13
2023-03-05T04:43:47.554Z,100068.44
2023-03-05T04:46:15.492Z,100059.78
2023-03-05T04:48:43.268Z,100066.81
2023-03-05T04:51:10.875Z,100066.88
2023-03-05T04:53:38.833Z,100065.97
2023-03-05T04:56:06.452Z,100061.53
2023-03-05T04:58:34.019Z,100058.91
2023-03-05T05:01:01.829Z,100051.88
2023-03-05T05:03:29.465Z,100054.50
2023-03-05T05:05:57.548Z,100050.06
2023-03-05T05:08:25.557Z,100051.00
2023-03-05T05:10:53.277Z,100052.00
2023-03-05T05:13:20.868Z,100046.84
2023-03-05T05:15:48.542Z,100053.88
2023-03-05T05:18:16.245Z,100048.59
2023-03-05T05:20:43.852Z,100045.81
2023-03-05T05:23:11.476Z,100044.91
2023-03-05T05:25:39.256Z,100035.28
2023-03-05T05:28:06.849Z,100040.53
2023-03-05T05:30:34.867Z,100037.00
2023-03-05T05:33:02.517Z,100045.81
2023-03-05T05:35:30.139Z,100040.53
2023-03-05T05:37:57.763Z,100037.06
2023-03-05T05:40:25.392Z,100032.63
2023-03-05T05:42:52.985Z,100037.06
2023-03-05T05:45:20.649Z,100032.81
2023-03-05T05:47:48.283Z,100030.59
2023-03-05T05:50:16.620Z,100034.44
2023-03-05T05:52:44.645Z,100040.09
2023-03-05T05:55:12.673Z,100033.34
2023-03-05T05:57:40.252Z,100037.06
2023-03-05T06:00:07.842Z,100027.63
2023-03-05T06:02:35.566Z,100028.63
2023-03-05T06:05:03.170Z,100023.34
2023-03-05T06:07:32.058Z,100018.25
2023-03-05T06:09:59.663Z,100016.53
2023-03-05T06:12:27.228Z,100009.56
2023-03-05T06:14:56.116Z,100012.19
2023-03-05T06:17:30.463Z,100005.22
2023-03-05T06:19:58.960Z,100010.44
2023-03-05T06:22:26.593Z,100011.25
2023-03-05T06:24:54.200Z,100023.53
2023-03-05T06:27:21.808Z,100023.53
2023-03-05T06:29:49.424Z,100033.88
2023-03-05T06:32:17.428Z,100031.09
2023-03-05T06:34:45.042Z,100030.09
2023-03-05T06:37:13.124Z,100033.34
2023-03-05T06:39:40.733Z,100031.56
2023-03-05T06:42:08.320Z,100024.44
2023-03-05T06:44:36.294Z,100024.28
2023-03-05T06:47:03.878Z,100027.69
2023-03-05T06:49:31.499Z,100027.50
2023-03-05T06:51:59.162Z,100022.97
2023-03-05T06:54:26.741Z,100018.56
2023-03-05T06:56:54.940Z,100023.59
2023-03-05T06:59:22.864Z,100024.22
2023-03-05T07:01:50.484Z,100023.97
2023-03-05T07:04:18.450Z,100022.91
2023-03-05T07:06:46.127Z,100020.84
2023-03-05T07:09:13.931Z,100015.34
2023-03-05T07:11:41.549Z,100014.34
2023-03-05T07:14:09.307Z,100018.53
2023-03-05T07:16:36.959Z,100003.50
2023-03-05T07:19:04.908Z,100008.84
2023-03-05T07:21:32.900Z,100015.13
2023-03-05T07:24:00.612Z,100015.44
2023-03-05T07:26:28.270Z,100007.09
2023-03-05T07:28:55.942Z,100012.69
2023-03-05T07:31:27.221Z,100013.84
2023-03-05T07:33:55.622Z,100012.34
2023-03-05T07:36:23.288Z,100004.63
2023-03-05T07:38:50.874Z,100008.13
2023-03-05T07:41:21.277Z,100007.19
2023-03-05T07:43:49.006Z,99993.94
2023-03-05T07:46:17.020Z,99998.19
2023-03-05T07:48:44.716Z,99992.84
2023-03-05T07:51:12.418Z,99989.28
2023-03-05T07:53:40.229Z,99988.22
2023-03-05T07:56:07.942Z,99985.34
2023-03-05T07:58:35.674Z,99986.88
2023-03-05T08:01:03.340Z,99985.78
2023-03-05T08:03:31.385Z,99985.84
2023-03-05T08:05:59.110Z,99982.28
2023-03-05T08:08:26.787Z,99981.22
2023-03-05T08:10:54.795Z,99979.09
2023-03-05T08:13:22.500Z,99979.78
2023-03-05T08:15:50.109Z,99977.78
2023-03-05T08:18:19.672Z,99977.44
2023-03-05T08:20:47.597Z,99971.00
2023-03-05T08:23:15.384Z,99964.84
2023-03-05T08:25:43.537Z,99964.03
2023-03-05T08:28:11.255Z,99966.72
2023-03-05T08:30:39.112Z,99969.38
2023-03-05T08:33:06.846Z,99960.47
2023-03-05T08:35:35.239Z,99955.88
2023-03-05T08:38:02.958Z,99960.81
2023-03-05T08:40:30.689Z,99957.75
2023-03-05T08:42:58.621Z,99953.59
2023-03-05T08:45:26.355Z,99946.88
2023-03-05T08:47:54.782Z,99946.38
2023-03-05T08:50:23.805Z,99946.00
2023-03-05T08:52:51.497Z,99951.13
2023-03-05T08:55:19.547Z,99949.66
2023-03-05T08:57:47.461Z,99949.31
2023-03-05T09:00:15.614Z,99942.00
2023-03-05T09:02:43.423Z,99933.03
2023-03-05T09:05:11.307Z,99942.09
2023-03-05T09:07:39.362Z,99938.84
2023-03-05T09:10:07.706Z,99931.97
2023-03-05T09:12:36.084Z,99928.72
2023-03-05T09:15:03.925Z,99930.97
2023-03-05T09:17:31.645Z,99926.31
2023-03-05T09:19:59.460Z,99924.28
2023-03-05T09:22:27.200Z,99922.47
2023-03-05T09:24:54.858Z,99923.69
2023-03-05T09:27:22.802Z,99923.69
2023-03-05T09:29:50.659Z,99921.25
2023-03-05T09:32:18.478Z,99918.03
2023-03-05T09:34:46.626Z,99908.56
2023-03-05T09:37:14.765Z,99917.72
2023-03-05T09:39:42.529Z,99913.47
2023-03-05T09:42:10.446Z,99912.72
2023-03-05T09:44:38.857Z,99905.09
2023-03-05T09:47:06.673Z,99904.47
2023-03-05T09:49:34.894Z,99897.69
2023-03-05T09:52:02.626Z,99898.44
2023-03-05T09:54:30.805Z,99896.72
2023-03-05T09:56:58.725Z,99892.47
2023-03-05T09:59:27.716Z,99890.63
2023-03-05T10:01:55.884Z,99892.47
2023-03-05T10:04:24.038Z,99895.41
2023-03-05T10:06:51.970Z,99895.69
2023-03-05T10:09:21.288Z,99883.13
2023-03-05T10:11:49.268Z,99889.00
2023-03-05T10:14:17.491Z,99882.78
2023-03-05T10:16:45.824Z,99881.09
2023-03-05T10:19:13.980Z,99882.97
2023-03-05T10:21:42.069Z,99879.75
2023-03-05T10:24:10.049Z,99875.69
2023-03-05T10:26:38.571Z,99878.63
2023-03-05T10:29:06.501Z,99866.31
2023-03-05T10:31:35.370Z,99865.56
2023-03-05T10:34:03.548Z,99872.00
2023-03-05T10:36:31.541Z,99859.75
2023-03-05T10:39:02.001Z,99865.38
2023-03-05T10:41:30.191Z,99864.31
2023-03-05T10:43:57.968Z,99860.50
2023-03-05T10:46:26.025Z,99861.91
2023-03-05T10:48:54.241Z,99858.69
2023-03-05T10:51:22.395Z,99846.78
2023-03-05T10:53:50.280Z,99856.84
2023-03-05T10:56:18.369Z,99851.66
2023-03-05T10:58:46.451Z,99855.91
2023-03-05T11:01:15.768Z,99852.81
2023-03-05T11:03:44.134Z,99847.03
2023-03-05T11:06:11.986Z,99848.25
2023-03-05T11:08:39.828Z,99827.38
2023-03-05T11:11:07.954Z,99837.97
2023-03-05T11:13:35.740Z,99829.47
2023-03-05T11:16:04.418Z,99836.16
2023-03-05T11:18:34.942Z,99823.56
2023-03-05T11:21:02.913Z,99825.41
2023-03-05T11:23:32.030Z,99826.63
2023-03-05T11:26:01.323Z,99830.72
2023-03-05T11:28:33.237Z,99820.69
2023-03-05T11:31:01.734Z,99820.94
2023-03-05T11:33:29.703Z,99815.69
2023-03-05T11:35:57.462Z,99814.72
2023-03-05T11:38:25.537Z,99812.59
2023-03-05T11:40:53.455Z,99815.41
2023-03-05T11:43:21.207Z,99804.13
2023-03-05T11:45:49.554Z,99812.22
2023-03-05T11:48:17.926Z,99804.50
2023-03-05T11:50:45.932Z,99799.78
2023-03-05T11:53:14.343Z,99790.00
2023-03-05T11:55:42.205Z,99794.84
2023-03-05T11:58:10.516Z,99775.91
2023-03-05T12:00:38.679Z,99785.22
2023-03-05T12:03:06.601Z,99786.72
2023-03-05T12:05:34.759Z,99768.13
2023-03-05T12:08:03.205Z,99770.47
2023-03-05T12:10:31.018Z,99758.00
2023-03-05T12:12:59.372Z,99760.66
2023-03-05T12:15:27.399Z,99758.97
2023-03-05T12:17:55.886Z,99754.16
2023-03-05T12:20:23.794Z,99757.09
2023-03-05T12:22:51.648Z,99749.84
2023-03-05T12:25:19.690Z,99751.19
2023-03-05T12:27:47.633Z,99748.53
2023-03-05T12:30:16.038Z,99737.38
2023-03-05T12:32:43.802Z,99733.44
2023-03-05T12:35:11.823Z,99727.53
2023-03-05T12:37:40.245Z,99712.88
2023-03-05T12:40:08.963Z,99706.88
2023-03-05T12:42:39.367Z,99702.13
2023-03-05T12:45:07.485Z,99706.56
2023-03-05T12:47:35.414Z,99703.56
2023-03-05T12:50:03.870Z,99694.19
2023-03-05T12:52:32.263Z,99695.84
2023-03-05T12:55:00.659Z,99693.69
2023-03-05T12:57:29.756Z,99685.88
2023-03-05T12:59:57.722Z,99682.69
2023-03-05T13:02:25.709Z,99674.03
2023-03-05T13:04:53.883Z,99670.22
2023-03-05T13:07:22.486Z,99669.41
2023-03-05T13:09:50.475Z,99674.88
2023-03-05T13:12:18.447Z,99665.38
2023-03-05T13:14:47.921Z,99665.16
2023-03-05T13:17:15.844Z,99659.56
2023-03-05T13:19:44.000Z,99660.09
2023-03-05T13:22:11.959Z,99659.44
2023-03-05T13:24:39.751Z,99656.94
2023-03-05T13:27:08.176Z,99649.41
2023-03-05T13:29:36.198Z,99655.53
2023-03-05T13:32:04.575Z,99648.84
2023-03-05T13:34:46.111Z,99635.50
2023-03-05T13:37:16.238Z,99637.69
2023-03-05T13:39:44.064Z,99633.22
2023-03-05T13:42:12.315Z,99629.81
2023-03-05T13:44:40.524Z,99626.03
2023-03-05T13:47:08.403Z,99618.66
2023-03-05T13:49:36.378Z,99619.44
2023-03-05T13:52:04.541Z,99611.59
2023-03-05T13:54:33.028Z,99609.38
2023-03-05T13:57:01.397Z,99611.13
2023-03-05T13:59:30.055Z,99602.81
2023-03-05T14:01:58.195Z,99597.59
2023-03-05T14:04:26.205Z,99588.50
2023-03-05T14:06:54.424Z,99583.66
2023-03-05T14:09:22.248Z,99584.47
2023-03-05T14:11:50.112Z,99583.56
2023-03-05T14:14:19.049Z,99579.06
2023-03-05T14:16:47.144Z,99575.38
2023-03-05T14:19:15.689Z,99580.47
2023-03-05T14:21:43.739Z,99574.28
2023-03-05T14:24:11.587Z,99562.53
2023-03-05T14:26:39.509Z,99567.25
2023-03-05T14:29:07.544Z,99556.78
2023-03-05T14:31:35.754Z,99554.97
2023-03-05T14:34:03.563Z,99549.44
2023-03-05T14:36:31.819Z,99543.16
2023-03-05T14:39:00.716Z,99548.59
2023-03-05T14:41:28.992Z,99545.91
2023-03-05T14:43:57.601Z,99543.25
2023-03-05T14:46:25.403Z,99529.38
2023-03-05T14:48:53.347Z,99528.41
2023-03-05T14:51:21.326Z,99522.59
2023-03-05T14:53:51.138Z,99526.28
2023-03-05T14:56:19.475Z,99516.25
2023-03-05T14:58:47.465Z,99517.06
2023-03-05T15:01:16.895Z,99506.25
2023-03-05T15:03:46.295Z,99495.53
2023-03-05T15:06:14.205Z,99508.69
2023-03-05T15:08:42.441Z,99502.84
2023-03-05T15:11:11.501Z,99500.94
2023-03-05T15:13:39.638Z,99492.28
2023-03-05T15:16:07.751Z,99494.31
2023-03-05T15:18:35.661Z,99493.81
2023-03-05T15:21:04.188Z,99483.16
2023-03-05T15:23:36.737Z,99476.63
2023-03-05T15:26:06.567Z,99488.63
2023-03-05T15:28:35.347Z,99480.19
2023-03-05T15:31:03.534Z,99490.38
2023-03-05T15:33:31.917Z,99481.53
2023-03-05T15:35:59.950Z,99481.41
2023-03-05T15:38:27.896Z,99477.72
2023-03-05T15:40:56.397Z,99479.25
2023-03-05T15:43:24.386Z,99486.91
2023-03-05T15:45:52.537Z,99475.06
2023-03-05T15:48:20.996Z,99479.84
2023-03-05T15:50:48.839Z,99474.03
2023-03-05T15:53:18.148Z,99464.81
2023-03-05T15:55:46.273Z,99461.88
2023-03-05T15:58:14.840Z,99469.44
2023-03-05T16:00:42.691Z,99461.09
2023-03-05T16:03:10.782Z,99454.53
2023-03-05T16:05:39.014Z,99459.19
2023-03-05T16:08:06.854Z,99457.94
2023-03-05T16:10:36.408Z,99448.66
2023-03-05T16:13:04.568Z,99455.09
2023-03-05T16:15:33.073Z,99457.31
2023-03-05T16:18:01.277Z,99448.13
2023-03-05T16:20:29.083Z,99448.44
2023-03-05T16:22:57.537Z,99441.66
2023-03-05T16:25:25.459Z,99446.41
2023-03-05T16:27:53.272Z,99439.66
2023-03-05T16:30:21.295Z,99446.09
2023-03-05T16:32:50.793Z,99435.75
2023-03-05T16:35:20.523Z,99438.63
2023-03-05T16:37:48.575Z,99436.16
2023-03-05T16:40:16.550Z,99436.34
2023-03-05T16:42:46.365Z,99433.00
2023-03-05T16:45:14.279Z,99423.47
2023-03-05T16:47:42.764Z,99429.81
2023-03-05T16:50:10.665Z,99431.72
2023-03-05T16:52:38.594Z,99431.06
2023-03-05T16:55:07.765Z,99424.94
2023-03-05T16:57:35.689Z,99427.78
2023-03-05T17:00:05.071Z,99421.75
2023-03-05T17:02:33.131Z,99422.69
2023-03-05T17:05:01.040Z,99422.06
2023-03-05T17:07:29.055Z,99420.50
2023-03-05T17:09:57.059Z,99411.81
2023-03-05T17:12:25.301Z,99411.09
2023-03-05T17:14:53.085Z,99414.75
2023-03-05T17:17:21.525Z,99413.94
2023-03-05T17:19:49.415Z,99411.47
2023-03-05T17:22:17.202Z,99409.88
2023-03-05T17:24:47.397Z,99415.28
2023-03-05T17:27:18.872Z,99403.25
2023-03-05T17:29:46.864Z,99406.94
2023-03-05T17:32:15.083Z,99406.19
2023-03-05T17:34:43.559Z,99401.94
2023-03-05T17:37:12.322Z,99401.22
2023-03-05T17:39:40.736Z,99410.09
2023-03-05T17:42:08.569Z,99405.84
2023-03-05T17:44:37.021Z,99411.22
2023-03-05T17:47:04.870Z,99406.91
2023-03-05T17:49:33.111Z,99404.25
2023-03-05T17:52:01.035Z,99401.63
2023-03-05T17:54:28.961Z,99400.78
2023-03-05T17:56:57.083Z,99400.03
2023-03-05T17:59:25.073Z,99398.25
2023-03-05T18:01:53.223Z,99401.84
2023-03-05T18:04:21.141Z,99409.75
2023-03-05T18:06:49.256Z,99399.28
2023-03-05T18:09:17.138Z,99398.44
2023-03-05T18:11:45.032Z,99396.75
2023-03-05T18:14:14.168Z,99398.56
2023-03-05T18:16:43.807Z,99395.91
2023-03-05T18:19:11.775Z,99396.00
2023-03-05T18:21:40.078Z,99398.66
2023-03-05T18:24:08.412Z,99402.25
2023-03-05T18:26:36.810Z,99400.66
2023-03-05T18:29:05.000Z,99394.72
2023-03-05T18:31:32.973Z,99391.34
2023-03-05T18:34:01.200Z,99392.31
2023-03-05T18:36:29.222Z,99397.56
2023-03-05T18:38:57.457Z,99386.38
2023-03-05T18:41:27.668Z,99386.56
2023-03-05T18:43:56.087Z,99382.34
2023-03-05T18:46:25.640Z,99373.69
2023-03-05T18:48:53.534Z,99374.63
2023-03-05T18:51:22.261Z,99375.56
2023-03-05T18:53:50.535Z,99366.94
2023-03-05T18:56:18.395Z,99363.53
2023-03-05T18:58:48.010Z,99363.53
2023-03-05T19:01:17.740Z,99364.47
2023-03-05T19:03:45.724Z,99355.72
2023-03-05T19:06:13.765Z,99354.88
2023-03-05T19:08:41.991Z,99351.41
2023-03-05T19:11:10.234Z,99350.56
2023-03-05T19:13:41.158Z,99354.88
2023-03-05T19:16:09.539Z,99358.47
2023-03-05T19:18:44.226Z,99354.13
2023-03-05T19:21:12.416Z,99348.00
2023-03-05T19:23:40.402Z,99352.53
2023-03-05T19:26:08.613Z,99346.53
2023-03-05T19:28:36.959Z,99344.00
2023-03-05T19:31:04.875Z,99340.63
2023-03-05T19:33:32.896Z,99329.34
2023-03-05T19:36:00.728Z,99324.06
2023-03-05T19:38:28.543Z,99327.63
2023-03-05T19:40:56.982Z,99323.28
2023-03-05T19:43:24.877Z,99322.34
2023-03-05T19:45:52.989Z,99324.16
2023-03-05T19:48:21.003Z,99324.97
2023-03-05T19:50:49.154Z,99321.50
2023-03-05T19:53:17.379Z,99318.78
2023-03-05T19:55:45.354Z,99323.19
2023-03-05T19:58:13.547Z,99319.69
2023-03-05T20:00:41.515Z,99321.50
2023-03-05T20:03:09.485Z,99314.44
2023-03-05T20:05:37.327Z,99318.88
2023-03-05T20:08:05.140Z,99318.00
2023-03-05T20:10:33.402Z,99316.34
2023-03-05T20:13:01.677Z,99315.59
2023-03-05T20:15:29.961Z,99315.81
2023-03-05T20:17:58.448Z,99312.63
2023-03-05T20:20:26.298Z,99313.09
2023-03-05T20:22:54.488Z,99311.72
2023-03-05T20:25:25.041Z,99318.25
2023-03-05T20:27:53.020Z,99310.63
2023-03-05T20:30:21.465Z,99314.41
2023-03-05T20:32:49.415Z,99312.91
2023-03-05T20:35:18.885Z,99307.09
2023-03-05T20:38:21.041Z,99308.34
2023-03-05T20:40:49.594Z,99305.44
2023-03-05T20:43:17.478Z,99306.75
2023-03-05T20:45:45.703Z,99297.56
2023-03-05T20:48:13.622Z,99299.66
2023-03-05T20:50:42.833Z,99299.94
2023-03-05T20:53:10.772Z,99303.78
2023-03-05T20:55:39.234Z,99298.72
2023-03-05T20:58:07.696Z,99296.56
2023-03-05T21:00:35.665Z,99286.59
2023-03-05T21:03:03.606Z,99277.31
2023-03-05T21:05:32.020Z,99286.31
2023-03-05T21:07:59.871Z,99288.41
2023-03-05T21:10:27.948Z,99280.88
2023-03-05T21:12:55.745Z,99273.44
2023-03-05T21:15:23.738Z,99281.72
2023-03-05T21:17:52.508Z,99275.97
2023-03-05T21:20:20.272Z,99271.94
2023-03-05T21:22:48.481Z,99276.44
2023-03-05T21:25:22.304Z,99269.59
2023-03-05T21:27:50.262Z,99258.31
2023-03-05T21:30:18.636Z,99255.69
2023-03-05T21:32:46.683Z,99254.00
2023-03-05T21:35:14.960Z,99249.50
2023-03-05T21:37:43.103Z,99240.66
2023-03-05T21:40:11.774Z,99235.31
2023-03-05T21:42:40.038Z,99240.47
2023-03-05T21:45:07.985Z,99235.78
2023-03-05T21:47:35.871Z,99237.66
2023-03-05T21:50:03.729Z,99232.69
2023-03-05T21:52:31.626Z,99226.66
2023-03-05T21:55:00.038Z,99225.09
2023-03-05T21:57:28.086Z,99219.81
2023-03-05T21:59:56.088Z,99219.91
2023-03-05T22:02:24.358Z,99214.81
2023-03-05T22:04:52.225Z,99208.72
2023-03-05T22:07:20.395Z,99201.66
2023-03-05T22:09:48.155Z,99197.28
2023-03-05T22:12:39.370Z,99198.97
2023-03-05T22:15:07.163Z,99178.78
2023-03-05T22:17:35.292Z,99176.97
2023-03-05T22:20:03.333Z,99182.25
2023-03-05T22:22:32.771Z,99177.91
2023-03-05T22:25:00.532Z,99173.59
2023-03-05T22:27:28.389Z,99171.25
2023-03-05T22:29:56.545Z,99165.34
2023-03-05T22:32:24.410Z,99161.13
2023-03-05T22:34:52.294Z,99162.16
2023-03-05T22:37:20.696Z,99157.84
2023-03-05T22:39:48.542Z,99152.56
2023-03-05T22:42:16.780Z,99147.31
2023-03-05T22:44:45.012Z,99139.44
2023-03-05T22:47:13.272Z,99143.66
2023-03-05T22:49:41.097Z,99143.56
2023-03-05T22:52:08.793Z,99135.50
2023-03-05T22:54:36.918Z,99131.91
2023-03-05T22:57:04.753Z,99129.19
2023-03-05T22:59:32.450Z,99124.69
2023-03-05T23:02:00.206Z,99121.97
2023-03-05T23:04:45.665Z,99120.94
2023-03-05T23:07:13.330Z,99118.97
2023-03-05T23:09:40.986Z,99117.06
2023-03-05T23:12:08.702Z,99111.44
2023-03-05T23:14:36.377Z,99114.41
2023-03-05T23:17:04.536Z,99115.72
2023-03-05T23:19:32.789Z,99107.31
2023-03-05T23:22:00.711Z,99103.44
2023-03-05T23:24:28.369Z,99105.69
2023-03-05T23:26:56.490Z,99101.09
2023-03-05T23:29:30.362Z,99107.94
2023-03-05T23:31:58.112Z,99102.38
2023-03-05T23:34:26.714Z,99101.34
2023-03-05T23:36:54.440Z,99105.56
2023-03-05T23:39:22.164Z,99103.66
2023-03-05T23:41:49.857Z,99101.78
2023-03-05T23:44:17.482Z,99099.13
2023-03-05T23:46:45.252Z,99099.03
2023-03-05T23:49:13.439Z,99089.47
2023-03-05T23:51:41.116Z,99093.78
2023-03-05T23:54:09.143Z,99090.19
2023-03-05T23:56:36.817Z,99088.53
2023-03-05T23:59:04.713Z,99083.25
